Federal Oshima — VRVY8 — position and weather

sailwx.info

Track history (hours):
 
Tides and Currents Weather Stations Pressure Air Temp Water Temp Dewpoint Dewpoint Depression Visibility Wind Speed Wind Dir Waves Ship Positions

Federal Oshima

Last reported at 2016-Aug-30 14:27 UTC. Time now 2016-Aug-30 14:57 UTC.
Position N 35°46' W 000°38'.

Length 200 m; draft 8.3 m.

Type: Cargo ship. MMSI: 477675000.

Date/timePositionNaut miles runAvg speedWind from/ knotsBaromVisibWave heightAir tempDewpointWater temp
2016-Aug-30 14:27N 35°46' W 000°38'0 0.0
2016-Aug-30 13:33N 35°46' W 000°38'0 0.0
2016-Aug-29 21:06N 35°46' W 000°38'0 0.0
2016-Aug-29 18:12N 35°46' W 000°38'0 0.0
2016-Aug-29 17:33N 35°46' W 000°38'0 0.0
2016-Aug-29 16:18N 35°46' W 000°38'0 0.0
2016-Aug-29 15:27N 35°46' W 000°38'0 0.0
2016-Aug-29 14:27N 35°46' W 000°38'0 0.0
2016-Aug-29 13:30N 35°46' W 000°38'0 0.1
2016-Aug-29 11:29N 35°46' W 000°38'0 0.1
2016-Aug-29 10:30N 35°46' W 000°38'0 0.0
2016-Aug-29 09:24N 35°46' W 000°38'0 0.1
2016-Aug-29 08:30N 35°46' W 000°38'0 0.0
2016-Aug-29 07:27N 35°46' W 000°38'0 0.0
2016-Aug-29 06:11N 35°46' W 000°38'0 0.0
2016-Aug-29 04:30N 35°46' W 000°38'0 0.0
2016-Aug-29 03:30N 35°46' W 000°38'0 0.0
2016-Aug-29 00:33N 35°46' W 000°38'0 0.0
2016-Aug-28 23:30N 35°46' W 000°38'0 0.0
2016-Aug-28 22:33N 35°46' W 000°38'0 0.0
2016-Aug-28 21:33N 35°46' W 000°38'0 0.0
2016-Aug-28 20:33N 35°46' W 000°38'0 0.0
2016-Aug-28 19:33N 35°46' W 000°38'0 0.0
2016-Aug-28 18:31N 35°46' W 000°38'0 0.0
2016-Aug-28 17:27N 35°46' W 000°38'0 0.0
2016-Aug-28 16:32N 35°46' W 000°38'0 0.0
2016-Aug-28 15:21N 35°46' W 000°38'0 0.0
2016-Aug-28 14:27N 35°46' W 000°38'0 0.0
2016-Aug-28 13:33N 35°46' W 000°38'0 0.0
2016-Aug-28 12:33N 35°46' W 000°38'0 0.0
2016-Aug-28 11:18N 35°46' W 000°38'0 0.0
2016-Aug-28 10:27N 35°46' W 000°38'0 0.0
2016-Aug-28 09:21N 35°46' W 000°38'0 0.0
2016-Aug-28 07:27N 35°46' W 000°38'0 0.0
2016-Aug-28 06:33N 35°46' W 000°38'0 0.0
2016-Aug-28 05:33N 35°46' W 000°38'0 0.0
2016-Aug-28 04:24N 35°46' W 000°38'0 0.0
2016-Aug-28 02:32N 35°46' W 000°38'0 0.0
2016-Aug-28 00:21N 35°46' W 000°38'0 0.0
2016-Aug-27 23:33N 35°46' W 000°38'0 0.0
2016-Aug-27 22:33N 35°46' W 000°38'0 0.0
2016-Aug-27 20:04N 35°46' W 000°38'0 0.1
2016-Aug-27 19:33N 35°46' W 000°38'0 0.1
2016-Aug-27 17:27N 35°46' W 000°38'0 0.0
2016-Aug-27 16:33N 35°46' W 000°38'0 0.2
2016-Aug-27 15:34N 35°46' W 000°38'3 3.2
2016-Aug-27 14:32N 35°49' W 000°40'9 9.2
2016-Aug-27 13:32N 35°50' W 000°51'1111.7
2016-Aug-27 12:33N 35°52' W 001°05'1110.9
2016-Aug-27 11:33N 35°53' W 001°19'9 8.9
2016-Aug-27 10:33N 35°53' W 001°30'9 8.8
2016-Aug-27 09:33N 35°52' W 001°41'9 8.9
2016-Aug-27 08:33N 35°52' W 001°52'19 8.8
2016-Aug-27 06:24N 35°51' W 002°15'73 9.1
2016-Aug-26 22:26N 35°52' W 003°44'68 9.5
2016-Aug-26 15:15N 35°58' W 005°09'7 9.8
2016-Aug-26 14:33N 35°58' W 005°17'1010.1
2016-Aug-26 13:34N 35°56' W 005°29'1111.1
2016-Aug-26 12:34N 35°54' W 005°43'205 8.2
2016-Aug-25 11:30N 36°31' W 009°52'1212.2
2016-Aug-25 10:28N 36°38' W 010°05'53 8.9
2016-Aug-25 04:33N 37°05' W 011°02'9 8.8
2016-Aug-25 03:33N 37°09' W 011°11'31 8.9
2016-Aug-25 00:06N 37°25' W 011°44'5 8.7
2016-Aug-24 23:29N 37°27' W 011°50'8 8.6
2016-Aug-24 22:30N 37°31' W 011°60'8 8.6
2016-Aug-24 21:31N 37°36' W 012°09'18 9.1
2016-Aug-24 19:33N 37°45' W 012°28'9 8.9
2016-Aug-24 18:32N 37°49' W 012°38'9 8.9
2016-Aug-24 17:29N 37°54' W 012°49'9 9.2
2016-Aug-24 16:30N 37°58' W 012°59'9 9.0
2016-Aug-24 15:29N 38°02' W 013°09'9 9.1
2016-Aug-24 14:31N 38°07' W 013°18'  
Track history (hours):
 
Tides and Currents Weather Stations Pressure Air Temp Water Temp Dewpoint Dewpoint Depression Visibility Wind Speed Wind Dir Waves Ship Positions

Federal Oshima

Last reported at 2016-Aug-30 14:27 UTC. Time now 2016-Aug-30 14:57 UTC.
Position N 35°46' W 000°38'.

Length 200 m; draft 8.3 m.

Type: Cargo ship. MMSI: 477675000.

Date/timePositionNaut miles runAvg speedWind from/ knotsBaromVisibWave heightAir tempDewpointWater temp
2016-Aug-30 14:27N 35°46' W 000°38'0 0.0
2016-Aug-30 13:33N 35°46' W 000°38'0 0.0
2016-Aug-29 21:06N 35°46' W 000°38'0 0.0
2016-Aug-29 18:12N 35°46' W 000°38'0 0.0
2016-Aug-29 17:33N 35°46' W 000°38'0 0.0
2016-Aug-29 16:18N 35°46' W 000°38'0 0.0
2016-Aug-29 15:27N 35°46' W 000°38'0 0.0
2016-Aug-29 14:27N 35°46' W 000°38'0 0.0
2016-Aug-29 13:30N 35°46' W 000°38'0 0.1
2016-Aug-29 11:29N 35°46' W 000°38'0 0.1
2016-Aug-29 10:30N 35°46' W 000°38'0 0.0
2016-Aug-29 09:24N 35°46' W 000°38'0 0.1
2016-Aug-29 08:30N 35°46' W 000°38'0 0.0
2016-Aug-29 07:27N 35°46' W 000°38'0 0.0
2016-Aug-29 06:11N 35°46' W 000°38'0 0.0
2016-Aug-29 04:30N 35°46' W 000°38'0 0.0
2016-Aug-29 03:30N 35°46' W 000°38'0 0.0
2016-Aug-29 00:33N 35°46' W 000°38'0 0.0
2016-Aug-28 23:30N 35°46' W 000°38'0 0.0
2016-Aug-28 22:33N 35°46' W 000°38'0 0.0
2016-Aug-28 21:33N 35°46' W 000°38'0 0.0
2016-Aug-28 20:33N 35°46' W 000°38'0 0.0
2016-Aug-28 19:33N 35°46' W 000°38'0 0.0
2016-Aug-28 18:31N 35°46' W 000°38'0 0.0
2016-Aug-28 17:27N 35°46' W 000°38'0 0.0
2016-Aug-28 16:32N 35°46' W 000°38'0 0.0
2016-Aug-28 15:21N 35°46' W 000°38'0 0.0
2016-Aug-28 14:27N 35°46' W 000°38'0 0.0
2016-Aug-28 13:33N 35°46' W 000°38'0 0.0
2016-Aug-28 12:33N 35°46' W 000°38'0 0.0
2016-Aug-28 11:18N 35°46' W 000°38'0 0.0
2016-Aug-28 10:27N 35°46' W 000°38'0 0.0
2016-Aug-28 09:21N 35°46' W 000°38'0 0.0
2016-Aug-28 07:27N 35°46' W 000°38'0 0.0
2016-Aug-28 06:33N 35°46' W 000°38'0 0.0
2016-Aug-28 05:33N 35°46' W 000°38'0 0.0
2016-Aug-28 04:24N 35°46' W 000°38'0 0.0
2016-Aug-28 02:32N 35°46' W 000°38'0 0.0
2016-Aug-28 00:21N 35°46' W 000°38'0 0.0
2016-Aug-27 23:33N 35°46' W 000°38'0 0.0
2016-Aug-27 22:33N 35°46' W 000°38'0 0.0
2016-Aug-27 20:04N 35°46' W 000°38'0 0.1
2016-Aug-27 19:33N 35°46' W 000°38'0 0.1
2016-Aug-27 17:27N 35°46' W 000°38'0 0.0
2016-Aug-27 16:33N 35°46' W 000°38'0 0.2
2016-Aug-27 15:34N 35°46' W 000°38'3 3.2
2016-Aug-27 14:32N 35°49' W 000°40'9 9.2
2016-Aug-27 13:32N 35°50' W 000°51'1111.7
2016-Aug-27 12:33N 35°52' W 001°05'1110.9
2016-Aug-27 11:33N 35°53' W 001°19'9 8.9
2016-Aug-27 10:33N 35°53' W 001°30'9 8.8
2016-Aug-27 09:33N 35°52' W 001°41'9 8.9
2016-Aug-27 08:33N 35°52' W 001°52'19 8.8
2016-Aug-27 06:24N 35°51' W 002°15'73 9.1
2016-Aug-26 22:26N 35°52' W 003°44'68 9.5
2016-Aug-26 15:15N 35°58' W 005°09'7 9.8
2016-Aug-26 14:33N 35°58' W 005°17'1010.1
2016-Aug-26 13:34N 35°56' W 005°29'1111.1
2016-Aug-26 12:34N 35°54' W 005°43'205 8.2
2016-Aug-25 11:30N 36°31' W 009°52'1212.2
2016-Aug-25 10:28N 36°38' W 010°05'53 8.9
2016-Aug-25 04:33N 37°05' W 011°02'9 8.8
2016-Aug-25 03:33N 37°09' W 011°11'31 8.9
2016-Aug-25 00:06N 37°25' W 011°44'5 8.7
2016-Aug-24 23:29N 37°27' W 011°50'8 8.6
2016-Aug-24 22:30N 37°31' W 011°60'8 8.6
2016-Aug-24 21:31N 37°36' W 012°09'18 9.1
2016-Aug-24 19:33N 37°45' W 012°28'9 8.9
2016-Aug-24 18:32N 37°49' W 012°38'9 8.9
2016-Aug-24 17:29N 37°54' W 012°49'9 9.2
2016-Aug-24 16:30N 37°58' W 012°59'9 9.0
2016-Aug-24 15:29N 38°02' W 013°09'9 9.1
2016-Aug-24 14:31N 38°07' W 013°18'  

Dump ship's entire track history